Cox Field
KPRX : now visible

Airfield :











YOU CAN JOIN US ON...

 
LOGIN :

Register | Disclaimer

   EN    FR    IT 

 









Legend :    VFR   Marginal VFR   IFR   Intensive IFR   Very Intensive IFR
Visi :
Ceiling :
>= 8 km
>= 3000ft
5 to 8 km
1000 to 3000 ft
1500m to 5 km
500 to 1000 ft
800 to 1500m
200 to 500 ft
< 800m
< 200 ft
Symbols :   Thunderstorms  Fog  Heavy snow  Heavy precipitations  Wind > 20 kt






- Airport Elevation : 547 ft


KPRX - Cox Field

CURRENT METAR :
  • 272136Z AUTO 12008KT 3/4SM BR OVC002 13/13 A2987 RMK AO2

EXPIRED METARs :
  • 272126Z AUTO 11010KT 1SM BR OVC002 13/13 A2986 RMK AO2
  • 272056Z AUTO 12011KT 1 3/4SM BR OVC002 13/13 A2988 RMK AO2 SLP135 60003 T01330128 58024
  • 272038Z AUTO 13010KT 2 1/2SM BR OVC002 13/12 A2989 RMK AO2
  • 271956Z AUTO 11010KT 5SM BR OVC004 12/12 A2990 RMK AO2 LTG DSNT W SLP142 T01220117
  • 271947Z AUTO 12010KT 6SM BR OVC004 12/12 A2991 RMK AO2
  • 271903Z AUTO 10004KT 10SM OVC008 12/11 A2994 RMK AO2 LTG DSNT NW-NE CIG 006V010
  • 271856Z AUTO 12007KT 10SM OVC010 12/11 A2994 RMK AO2 LTG DSNT NW-NE TSB20E56RAB10E51 CIG 006V014 SLP156 P0003 T01220111

TAF N/A
KZFW FIR / North America



MET'MAP, your aeronautical weather chart ! - Copyright ORBIFLY December 2007 - Disclaimer

ORBIFLY MET'MAP TEAM :

Programming & Development : Alexandra Zaïnal
Concept & original design : Baudouin d'Aumeries
Assistance for programming : Marc-Olivier Méhu
Technical & hardware support : Manuel Goepfert

Contact : metmap@orbifly.com




SOURCES & CREDITS :

   NOAA       Earth
Advisory